IL14 weather

Stark Heliport
Bloomington, Illinois, United States

Public forecast

Using degrees Fahrenheit for public forecast. Weather courtesy of forecast.io.

METAR (pilot weather report)

Closest report is Central Illinois Regional Airport at Bloomington-Normal, 4.8 nm (9.0 km) E. Retrieved 2019/06/24 19:59 UTC (44 minutes ago):

KBMI 241959Z 30011G25KT 4SM R20/2200VP6000FT +RA FEW019 BKN028 OVC110 20/17 A2971 RMK AO2 WSHFT 1945 P0002

TAF (pilot weather forecast)

Closest forecast is Central Illinois Regional Airport at Bloomington-Normal, 4.8 nm (9.0 km) E. Retrieved 2019/06/24 18:24 UTC (2 hours ago):

TAF KBMI 241723Z 2418/2518 23012KT P6SM VCSH SCT009 BKN015 FM241900 24015G23KT P6SM VCTS SCT035CB FM242300 26015G23KT P6SM SCT060 FM250300 24007KT P6SM SKC